Time;durP1;ratioP1;P1;durP2;ratioP2;P2;SDS_P1;SDS_P2;PMS_P1;PMS_P2;Temp;Humidity;BMP_temperature;BMP_pressure;BME280_temperature;BME280_humidity;BME280_pressure;Samples;Min_cycle;Max_cycle;Signal;HPM_P1;HPM_P2
2023/11/04 00:00:58;;;;;;;1.63;1.30;;;18.00;55.10;;;;;;5104854;28;20028;-34
2023/11/04 00:03:24;;;;;;;1.63;1.38;;;18.00;55.20;;;;;;5096946;28;20024;-35
2023/11/04 00:05:50;;;;;;;1.73;1.52;;;18.00;55.20;;;;;;5095262;28;20013;-34
2023/11/04 00:08:16;;;;;;;1.90;1.40;;;17.90;55.10;;;;;;5101076;28;20055;-34
2023/11/04 00:10:42;;;;;;;1.33;1.23;;;17.90;55.10;;;;;;5103718;28;20046;-34
2023/11/04 00:13:09;;;;;;;2.35;1.65;;;17.90;55.20;;;;;;5102934;28;20020;-34
2023/11/04 00:15:35;;;;;;;1.88;1.60;;;17.90;55.20;;;;;;5091246;28;20052;-34
2023/11/04 00:18:01;;;;;;;1.65;1.50;;;17.90;55.20;;;;;;5099535;28;20024;-34
2023/11/04 00:20:27;;;;;;;2.50;1.58;;;17.80;55.20;;;;;;5094021;28;20032;-34
2023/11/04 00:22:54;;;;;;;1.70;1.30;;;17.80;55.20;;;;;;5111002;28;20084;-34
2023/11/04 00:25:20;;;;;;;1.40;1.30;;;17.80;55.40;;;;;;5097949;28;20056;-34
2023/11/04 00:27:46;;;;;;;1.52;1.42;;;17.80;55.30;;;;;;5100877;28;20121;-34
2023/11/04 00:30:13;;;;;;;1.83;1.38;;;17.80;55.40;;;;;;5093870;28;20032;-34
2023/11/04 00:32:39;;;;;;;3.08;1.60;;;17.80;55.40;;;;;;5102414;28;20028;-34
2023/11/04 00:35:06;;;;;;;1.40;1.30;;;17.80;55.40;;;;;;5097819;28;20550;-34
2023/11/04 00:37:33;;;;;;;1.40;1.20;;;17.70;55.40;;;;;;5102634;28;20052;-34
2023/11/04 00:40:05;;;;;;;1.90;1.35;;;17.70;55.50;;;;;;5099380;28;20032;-33
2023/11/04 00:42:32;;;;;;;1.52;1.42;;;17.70;55.60;;;;;;5092319;28;20036;-33
2023/11/04 00:44:58;;;;;;;3.83;1.50;;;17.70;55.50;;;;;;5092263;28;20028;-34
2023/11/04 00:47:24;;;;;;;1.85;1.50;;;17.60;55.60;;;;;;5085604;28;20028;-33
2023/11/04 00:49:50;;;;;;;2.22;1.50;;;17.60;55.60;;;;;;5093345;28;20028;-34
2023/11/04 00:52:17;;;;;;;1.60;1.27;;;17.60;55.70;;;;;;5092005;28;20048;-34
2023/11/04 00:54:43;;;;;;;1.85;1.40;;;17.60;55.70;;;;;;5096693;28;20029;-33
2023/11/04 00:57:10;;;;;;;1.50;1.33;;;17.60;55.70;;;;;;5098661;28;20107;-34
2023/11/04 00:59:36;;;;;;;1.60;1.30;;;17.50;55.70;;;;;;5086814;28;20068;-33
2023/11/04 01:02:02;;;;;;;1.50;1.25;;;17.50;55.80;;;;;;5096780;28;20032;-33
2023/11/04 01:04:28;;;;;;;2.05;1.48;;;17.50;55.70;;;;;;5102007;28;20779;-34
2023/11/04 01:06:55;;;;;;;2.30;1.57;;;17.50;55.80;;;;;;5091545;28;20025;-34
2023/11/04 01:09:21;;;;;;;2.00;1.42;;;17.50;55.90;;;;;;5092899;28;20040;-33
2023/11/04 01:11:49;;;;;;;1.50;1.40;;;17.50;56.00;;;;;;5096162;28;20035;-33
2023/11/04 01:14:15;;;;;;;1.50;1.40;;;17.40;55.90;;;;;;5101627;28;20043;-33
2023/11/04 01:16:42;;;;;;;2.13;1.50;;;17.40;56.00;;;;;;5086045;28;20024;-33
2023/11/04 01:19:08;;;;;;;1.80;1.48;;;17.40;56.00;;;;;;5085216;28;20032;-33
2023/11/04 01:21:35;;;;;;;2.35;1.77;;;17.40;56.00;;;;;;5094700;28;20062;-33
2023/11/04 01:24:02;;;;;;;1.95;1.38;;;17.40;56.10;;;;;;5102680;28;20081;-34
2023/11/04 01:26:30;;;;;;;3.30;1.60;;;17.30;56.00;;;;;;5095152;28;20037;-34
2023/11/04 01:28:57;;;;;;;2.00;1.50;;;17.30;56.10;;;;;;5084969;28;20465;-33
2023/11/04 01:31:23;;;;;;;1.80;1.40;;;17.30;56.20;;;;;;5092871;28;20100;-33
2023/11/04 01:33:50;;;;;;;2.30;1.60;;;17.30;56.20;;;;;;5100492;28;20029;-34
2023/11/04 01:36:17;;;;;;;2.43;1.77;;;17.20;56.20;;;;;;5092675;28;20036;-34
2023/11/04 01:38:43;;;;;;;;;;;17.20;56.30;;;;;;5093723;28;20054;-34
2023/11/04 01:41:09;;;;;;;1.30;1.20;;;17.20;56.30;;;;;;5103650;28;19908;-34
2023/11/04 01:43:36;;;;;;;1.63;1.10;;;17.20;56.60;;;;;;5093100;28;20064;-34
2023/11/04 01:46:05;;;;;;;1.65;1.38;;;17.30;56.70;;;;;;5096780;28;20071;-34
2023/11/04 01:48:31;;;;;;;1.30;1.20;;;17.30;56.80;;;;;;5093023;28;20044;-33
2023/11/04 01:50:57;;;;;;;2.17;1.70;;;17.30;56.70;;;;;;5096802;28;20103;-33
2023/11/04 01:53:23;;;;;;;1.50;1.30;;;17.30;56.70;;;;;;5101645;28;20496;-33
2023/11/04 01:55:50;;;;;;;1.55;1.45;;;17.30;56.60;;;;;;5099068;28;20033;-33
2023/11/04 01:58:17;;;;;;;1.75;1.50;;;17.20;56.60;;;;;;5091861;28;20103;-33
2023/11/04 02:00:43;;;;;;;1.57;1.47;;;17.20;56.60;;;;;;5085452;28;20028;-33
2023/11/04 02:03:10;;;;;;;2.13;1.45;;;17.20;56.60;;;;;;5092393;28;20039;-33
2023/11/04 02:05:36;;;;;;;1.60;1.50;;;17.20;56.60;;;;;;5100044;28;20036;-33
2023/11/04 02:08:02;;;;;;;1.55;1.40;;;17.10;56.60;;;;;;5096830;28;20064;-34
2023/11/04 02:10:29;;;;;;;1.20;1.10;;;17.20;57.00;;;;;;5102069;28;20021;-34
2023/11/04 02:12:55;;;;;;;1.42;1.23;;;17.30;57.20;;;;;;5094985;28;20044;-33
2023/11/04 02:15:22;;;;;;;1.52;1.30;;;17.30;57.20;;;;;;5085767;28;20024;-33
2023/11/04 02:17:48;;;;;;;2.67;1.45;;;17.30;57.10;;;;;;5085356;28;20654;-33
2023/11/04 02:20:14;;;;;;;1.90;1.33;;;17.20;57.00;;;;;;5092159;28;20032;-33
2023/11/04 02:22:41;;;;;;;1.50;1.25;;;17.20;57.00;;;;;;5100399;28;21357;-33
2023/11/04 02:25:08;;;;;;;2.00;1.55;;;17.20;57.00;;;;;;5100149;28;20071;-33
2023/11/04 02:27:34;;;;;;;2.00;1.52;;;17.10;56.90;;;;;;5101266;28;20036;-33
2023/11/04 02:30:02;;;;;;;2.10;1.40;;;17.10;56.90;;;;;;5101748;28;20032;-33
2023/11/04 02:32:30;;;;;;;;;;;17.20;57.20;;;;;;5102157;28;20032;-33
2023/11/04 02:34:56;;;;;;;1.08;0.98;;;17.20;57.30;;;;;;5088400;28;19912;-33
2023/11/04 02:37:22;;;;;;;1.88;1.40;;;17.30;57.40;;;;;;5094881;28;20031;-34
2023/11/04 02:39:49;;;;;;;2.83;1.50;;;17.20;57.30;;;;;;5094077;28;20025;-33
2023/11/04 02:42:15;;;;;;;1.77;1.50;;;17.20;57.30;;;;;;5102662;28;20085;-33
2023/11/04 02:44:43;;;;;;;1.38;1.27;;;17.20;57.20;;;;;;5100546;28;20048;-33
2023/11/04 02:47:09;;;;;;;1.63;1.27;;;17.10;57.70;;;;;;5101949;28;20055;-34
2023/11/04 02:49:35;;;;;;;2.13;1.65;;;17.10;57.20;;;;;;5101281;28;20501;-33
2023/11/04 02:52:01;;;;;;;1.95;1.13;;;17.10;57.30;;;;;;5097965;28;20051;-34
2023/11/04 02:54:28;;;;;;;1.90;1.70;;;17.20;57.50;;;;;;5098339;28;20564;-34
2023/11/04 02:56:54;;;;;;;1.55;1.40;;;17.30;57.60;;;;;;5096443;28;20024;-34
2023/11/04 02:59:20;;;;;;;2.03;1.30;;;17.20;57.40;;;;;;5091747;28;20036;-34
2023/11/04 03:01:47;;;;;;;2.03;1.55;;;17.20;57.40;;;;;;5100519;28;20078;-34
2023/11/04 03:04:13;;;;;;;1.55;1.35;;;17.20;57.40;;;;;;5100418;28;20043;-33
2023/11/04 03:06:39;;;;;;;1.60;1.40;;;17.10;57.30;;;;;;5090903;28;20024;-33
2023/11/04 03:09:06;;;;;;;2.17;1.60;;;17.10;57.40;;;;;;5090861;28;20056;-33
2023/11/04 03:11:32;;;;;;;1.25;1.15;;;17.10;57.50;;;;;;5085124;28;20037;-33
2023/11/04 03:13:58;;;;;;;1.60;1.30;;;17.20;57.60;;;;;;5096421;28;20037;-33
2023/11/04 03:16:24;;;;;;;1.58;1.45;;;17.20;57.60;;;;;;5098353;28;20032;-33
2023/11/04 03:18:50;;;;;;;2.65;1.70;;;17.20;57.60;;;;;;5093774;28;20032;-34
2023/11/04 03:21:18;;;;;;;2.08;1.50;;;17.20;57.60;;;;;;5101226;28;20099;-34
2023/11/04 03:23:44;;;;;;;;;;;17.10;57.50;;;;;;5086017;28;20901;-33
2023/11/04 03:26:10;;;;;;;1.75;1.35;;;17.10;57.50;;;;;;5098009;28;19962;-33
2023/11/04 03:28:36;;;;;;;1.90;1.60;;;17.10;57.50;;;;;;5094326;28;20036;-32
2023/11/04 03:31:03;;;;;;;2.00;1.58;;;17.10;57.60;;;;;;5087872;28;20044;-33
2023/11/04 03:33:30;;;;;;;1.30;1.20;;;17.20;57.80;;;;;;5088319;28;20028;-34
2023/11/04 03:35:56;;;;;;;1.88;1.35;;;17.30;57.80;;;;;;5102726;28;20063;-35
2023/11/04 03:38:23;;;;;;;2.00;1.48;;;17.20;57.70;;;;;;5086050;28;20056;-34
2023/11/04 03:40:49;;;;;;;1.70;1.40;;;17.20;57.70;;;;;;5087806;28;20025;-34
2023/11/04 03:43:15;;;;;;;1.55;1.20;;;17.20;57.70;;;;;;5099851;28;20044;-34
2023/11/04 03:45:41;;;;;;;2.08;1.50;;;17.10;57.60;;;;;;5101551;28;20028;-34
2023/11/04 03:48:07;;;;;;;1.73;1.50;;;17.10;57.60;;;;;;5092199;28;20032;-34
2023/11/04 03:50:33;;;;;;;1.95;1.42;;;17.10;57.70;;;;;;5087564;28;20492;-33
2023/11/04 03:52:59;;;;;;;2.00;1.52;;;17.20;57.90;;;;;;5088521;28;20032;-34
2023/11/04 03:55:25;;;;;;;1.75;1.60;;;17.20;58.00;;;;;;5103639;28;20058;-34
2023/11/04 03:57:53;;;;;;;2.00;1.33;;;17.20;57.80;;;;;;5087275;28;20074;-33
2023/11/04 04:00:19;;;;;;;1.67;1.38;;;17.20;57.80;;;;;;5086951;28;20039;-33
2023/11/04 04:02:46;;;;;;;1.80;1.50;;;17.20;57.70;;;;;;5101219;28;20032;-34
2023/11/04 04:05:12;;;;;;;1.70;1.30;;;17.10;57.70;;;;;;5094930;28;20047;-33
2023/11/04 04:07:38;;;;;;;1.88;1.58;;;17.10;57.70;;;;;;5089500;28;20044;-33
2023/11/04 04:10:05;;;;;;;1.50;1.40;;;17.10;57.70;;;;;;5093657;28;20485;-34
2023/11/04 04:12:31;;;;;;;2.25;1.50;;;17.10;57.90;;;;;;5087420;28;20544;-34
2023/11/04 04:14:57;;;;;;;1.63;1.52;;;17.20;58.00;;;;;;5094156;28;20059;-33
2023/11/04 04:17:23;;;;;;;1.70;1.48;;;17.20;57.90;;;;;;5087144;28;20028;-33
2023/11/04 04:19:50;;;;;;;2.20;1.52;;;17.20;57.90;;;;;;5087771;28;20055;-33
2023/11/04 04:22:16;;;;;;;2.78;1.65;;;17.20;57.80;;;;;;5099134;28;20096;-33
2023/11/04 04:24:42;;;;;;;1.60;1.25;;;17.10;57.80;;;;;;5096957;28;20090;-33
2023/11/04 04:27:08;;;;;;;1.80;1.50;;;17.10;57.80;;;;;;5097942;28;20016;-33
2023/11/04 04:29:34;;;;;;;1.50;1.40;;;17.10;57.80;;;;;;5088982;28;20043;-34
2023/11/04 04:32:00;;;;;;;2.25;1.80;;;17.10;57.90;;;;;;5104632;28;20024;-34
2023/11/04 04:34:27;;;;;;;2.58;1.65;;;17.20;58.10;;;;;;5104890;28;20078;-34
2023/11/04 04:36:54;;;;;;;1.88;1.38;;;17.20;58.00;;;;;;5093759;28;20032;-34
2023/11/04 04:39:20;;;;;;;2.28;1.50;;;17.20;58.00;;;;;;5094762;28;20129;-34
2023/11/04 04:41:46;;;;;;;3.03;1.60;;;17.20;57.90;;;;;;5098319;28;20048;-34
2023/11/04 04:44:12;;;;;;;2.63;1.88;;;17.10;57.90;;;;;;5096411;28;20050;-34
2023/11/04 04:46:41;;;;;;;1.70;1.50;;;17.10;57.90;;;;;;5086466;28;20036;-34
2023/11/04 04:49:08;;;;;;;1.70;1.60;;;17.10;57.90;;;;;;5100576;28;20097;-33
2023/11/04 04:51:35;;;;;;;1.70;1.38;;;17.10;58.10;;;;;;5087950;28;20032;-34
2023/11/04 04:54:01;;;;;;;2.03;1.70;;;17.30;58.20;;;;;;5093071;28;20028;-34
2023/11/04 04:56:27;;;;;;;1.90;1.50;;;17.30;58.10;;;;;;5092530;28;20028;-35
2023/11/04 04:58:53;;;;;;;1.98;1.52;;;17.20;58.00;;;;;;5092977;28;20050;-33
2023/11/04 05:01:20;;;;;;;1.40;1.15;;;17.20;58.00;;;;;;5092696;28;20476;-34
2023/11/04 05:03:46;;;;;;;1.80;1.50;;;17.20;58.00;;;;;;5088537;28;20115;-33
2023/11/04 05:06:12;;;;;;;1.60;1.50;;;17.10;58.00;;;;;;5097717;28;20040;-33
2023/11/04 05:08:39;;;;;;;1.90;1.70;;;17.10;58.50;;;;;;5102411;28;20063;-34
2023/11/04 05:11:06;;;;;;;3.00;1.52;;;17.00;58.00;;;;;;5103942;28;20088;-33
2023/11/04 05:13:32;;;;;;;2.00;1.70;;;17.20;58.20;;;;;;5095271;28;20031;-34
2023/11/04 05:15:58;;;;;;;1.73;1.48;;;17.30;58.30;;;;;;5093860;28;20028;-34
2023/11/04 05:18:24;;;;;;;2.35;1.80;;;17.20;58.10;;;;;;5092746;28;20031;-34
2023/11/04 05:20:50;;;;;;;2.28;1.80;;;17.20;58.10;;;;;;5102365;28;20020;-34
2023/11/04 05:23:17;;;;;;;2.05;1.50;;;17.20;58.10;;;;;;5102651;28;20126;-34
2023/11/04 05:25:43;;;;;;;3.88;1.65;;;17.10;58.00;;;;;;5102011;28;20039;-34
2023/11/04 05:28:09;;;;;;;3.25;1.90;;;17.10;58.00;;;;;;5090215;28;20044;-33
2023/11/04 05:30:35;;;;;;;2.38;1.90;;;17.10;58.20;;;;;;5092156;28;20108;-33
2023/11/04 05:33:01;;;;;;;2.15;1.60;;;17.20;58.30;;;;;;5085534;28;20024;-33
2023/11/04 05:35:28;;;;;;;2.35;1.70;;;17.30;58.30;;;;;;5092717;28;20040;-34
2023/11/04 05:37:54;;;;;;;2.60;1.80;;;17.30;58.20;;;;;;5100569;28;20027;-34
2023/11/04 05:40:20;;;;;;;2.10;1.75;;;17.20;58.20;;;;;;5102763;28;20147;-34
2023/11/04 05:42:47;;;;;;;2.17;1.52;;;17.20;58.10;;;;;;5099410;28;20032;-33
2023/11/04 05:45:16;;;;;;;2.40;1.70;;;17.10;58.20;;;;;;5090469;28;20105;-33
2023/11/04 05:47:43;;;;;;;3.22;1.67;;;17.10;58.20;;;;;;5100717;28;20046;-34
2023/11/04 05:50:10;;;;;;;2.35;1.90;;;17.10;58.20;;;;;;5102499;28;20024;-34
2023/11/04 05:52:36;;;;;;;1.60;1.50;;;17.20;58.30;;;;;;5093180;28;20111;-34
2023/11/04 05:55:02;;;;;;;1.70;1.33;;;17.30;58.40;;;;;;5094942;28;20092;-33
2023/11/04 05:57:29;;;;;;;2.65;1.75;;;17.30;58.30;;;;;;5102037;28;20024;-33
2023/11/04 05:59:55;;;;;;;2.25;1.90;;;17.20;58.20;;;;;;5088203;28;20186;-33
2023/11/04 06:02:21;;;;;;;2.83;1.90;;;17.20;58.20;;;;;;5095402;28;20028;-33
2023/11/04 06:04:47;;;;;;;2.60;2.03;;;17.10;58.20;;;;;;5099170;28;20653;-33
2023/11/04 06:07:13;;;;;;;2.70;2.08;;;17.10;58.20;;;;;;5096806;28;20043;-34
2023/11/04 06:09:40;;;;;;;1.70;1.52;;;17.10;58.20;;;;;;5100997;28;20032;-34
2023/11/04 06:12:07;;;;;;;2.20;1.70;;;17.10;58.40;;;;;;5102368;28;20026;-34
2023/11/04 06:14:33;;;;;;;2.35;1.90;;;17.30;58.50;;;;;;5099388;28;20299;-34
2023/11/04 06:16:59;;;;;;;2.17;1.90;;;17.30;58.40;;;;;;5095671;28;20031;-33
2023/11/04 06:19:26;;;;;;;2.35;1.90;;;17.20;58.20;;;;;;5094904;28;20436;-34
2023/11/04 06:21:53;;;;;;;2.25;2.00;;;17.20;58.30;;;;;;5104591;28;20055;-34
2023/11/04 06:24:19;;;;;;;2.83;2.08;;;17.10;58.20;;;;;;5106259;28;20039;-34
2023/11/04 06:26:45;;;;;;;2.80;2.08;;;17.10;58.30;;;;;;5100468;28;20028;-34
2023/11/04 06:29:11;;;;;;;2.53;2.00;;;17.10;58.30;;;;;;5101830;28;20039;-35
2023/11/04 06:31:37;;;;;;;2.22;1.88;;;17.10;58.40;;;;;;5094398;28;20499;-33
2023/11/04 06:34:03;;;;;;;2.47;2.00;;;17.30;58.50;;;;;;5097060;28;20029;-33
2023/11/04 06:36:33;;;;;;;2.80;2.00;;;17.30;58.50;;;;;;5098189;28;20028;-33
2023/11/04 06:38:59;;;;;;;2.45;1.83;;;17.20;58.30;;;;;;5097859;28;20025;-33
2023/11/04 06:41:26;;;;;;;2.67;2.00;;;17.20;58.30;;;;;;5091330;28;20061;-33
2023/11/04 06:43:54;;;;;;;2.22;1.92;;;17.10;58.30;;;;;;5101333;28;20063;-33
2023/11/04 06:46:20;;;;;;;2.75;2.00;;;17.10;58.30;;;;;;5094845;28;20123;-33
2023/11/04 06:48:46;;;;;;;3.15;2.03;;;17.10;58.30;;;;;;5098499;28;20044;-33
2023/11/04 06:51:18;;;;;;;2.60;2.13;;;17.10;58.40;;;;;;5089641;28;20035;-33
2023/11/04 06:53:44;;;;;;;3.25;2.28;;;17.30;58.50;;;;;;5107686;28;20032;-34
2023/11/04 06:56:10;;;;;;;2.30;1.98;;;17.30;58.40;;;;;;5100670;28;20047;-33
2023/11/04 06:58:36;;;;;;;2.63;2.05;;;17.20;58.30;;;;;;5092637;28;20029;-33
2023/11/04 07:01:02;;;;;;;2.10;1.77;;;17.20;58.30;;;;;;5083641;28;20027;-34
2023/11/04 07:03:29;;;;;;;2.53;2.00;;;17.10;58.30;;;;;;5096808;28;20035;-33
2023/11/04 07:05:56;;;;;;;2.15;1.77;;;17.10;58.30;;;;;;5087823;28;20539;-34
2023/11/04 07:08:22;;;;;;;2.20;2.00;;;17.10;58.40;;;;;;5086954;28;20083;-34
2023/11/04 07:10:48;;;;;;;2.30;1.90;;;17.00;58.40;;;;;;5093596;28;20277;-34
2023/11/04 07:13:14;;;;;;;2.28;1.83;;;17.20;58.50;;;;;;5092505;28;20032;-34
2023/11/04 07:15:43;;;;;;;2.55;2.00;;;17.20;58.50;;;;;;5093508;28;20036;-34
2023/11/04 07:18:14;;;;;;;3.40;2.40;;;17.20;58.40;;;;;;5101299;28;20023;-35
2023/11/04 07:20:40;;;;;;;2.67;2.20;;;17.20;58.40;;;;;;5099491;28;20048;-34
2023/11/04 07:23:14;;;;;;;2.75;2.05;;;17.10;58.40;;;;;;5089134;28;20866;-33
2023/11/04 07:25:40;;;;;;;2.58;2.15;;;17.10;58.40;;;;;;5100196;28;20063;-34
2023/11/04 07:28:06;;;;;;;2.38;1.95;;;17.10;58.50;;;;;;5101247;28;20237;-34
2023/11/04 07:30:33;;;;;;;2.83;2.15;;;17.30;58.50;;;;;;5100251;28;20059;-34
2023/11/04 07:32:59;;;;;;;;;;;17.20;58.40;;;;;;5101824;28;20028;-34
2023/11/04 07:35:25;;;;;;;2.88;1.98;;;17.20;58.40;;;;;;5094016;28;19946;-34
2023/11/04 07:37:52;;;;;;;2.55;2.00;;;17.10;58.40;;;;;;5093619;28;20346;-34
2023/11/04 07:40:18;;;;;;;2.67;2.20;;;17.10;58.40;;;;;;5101129;28;20028;-34
2023/11/04 07:42:44;;;;;;;2.42;2.20;;;17.10;58.40;;;;;;5100164;28;20486;-33
2023/11/04 07:45:11;;;;;;;2.13;1.70;;;17.10;58.60;;;;;;5094880;28;20040;-33
2023/11/04 07:47:40;;;;;;;2.83;1.98;;;17.20;58.50;;;;;;5088811;28;20040;-33
2023/11/04 07:50:07;;;;;;;4.00;1.75;;;17.20;58.40;;;;;;5095541;28;20028;-33
2023/11/04 07:52:34;;;;;;;2.83;2.03;;;17.20;58.40;;;;;;5106806;28;20031;-33
2023/11/04 07:55:00;;;;;;;2.92;2.35;;;17.10;58.40;;;;;;5098611;28;20029;-33
2023/11/04 07:57:26;;;;;;;3.45;2.15;;;17.10;58.50;;;;;;5100428;28;20112;-33
2023/11/04 07:59:52;;;;;;;2.97;2.25;;;17.00;58.40;;;;;;5100505;28;20028;-33
2023/11/04 08:02:19;;;;;;;2.35;2.13;;;17.10;58.60;;;;;;5093958;28;20025;-33
2023/11/04 08:04:45;;;;;;;3.25;2.05;;;17.20;58.60;;;;;;5090516;28;20028;-33
2023/11/04 08:07:11;;;;;;;2.83;2.00;;;17.20;58.50;;;;;;5093553;28;20024;-33
2023/11/04 08:09:37;;;;;;;2.65;2.17;;;17.20;58.50;;;;;;5092324;28;20051;-33
2023/11/04 08:12:03;;;;;;;2.20;2.00;;;17.20;58.40;;;;;;5095138;28;20457;-33
2023/11/04 08:14:49;;;;;;;2.65;2.30;;;17.10;58.50;;;;;;5098824;28;20070;-33
2023/11/04 08:17:16;;;;;;;2.72;2.30;;;17.10;58.50;;;;;;5058860;28;20043;-33
2023/11/04 08:19:42;;;;;;;2.55;2.03;;;17.00;58.50;;;;;;5062729;28;20052;-33
2023/11/04 08:22:09;;;;;;;3.03;2.10;;;17.20;58.70;;;;;;5063236;28;20063;-33
2023/11/04 08:24:37;;;;;;;;;;;17.20;58.50;;;;;;5046489;28;20037;-34
2023/11/04 08:27:04;;;;;;;2.53;2.33;;;17.20;58.40;;;;;;5063356;28;19912;-33
2023/11/04 08:29:33;;;;;;;2.03;1.47;;;17.20;58.40;;;;;;5062351;28;20041;-33
2023/11/04 08:31:59;;;;;;;3.50;2.65;;;17.10;58.40;;;;;;5062402;28;20089;-33
2023/11/04 08:34:25;;;;;;;3.28;2.25;;;17.10;58.50;;;;;;5042530;28;20041;-33
2023/11/04 08:36:52;;;;;;;3.30;2.33;;;17.10;58.60;;;;;;5062434;28;20025;-34
2023/11/04 08:39:18;;;;;;;2.25;1.88;;;17.20;58.60;;;;;;5046307;28;20104;-33
2023/11/04 08:41:44;;;;;;;2.25;2.05;;;17.20;58.50;;;;;;5062567;28;20096;-33
2023/11/04 08:44:11;;;;;;;2.30;2.10;;;17.20;58.40;;;;;;5059629;28;20088;-33
2023/11/04 08:46:37;;;;;;;2.90;2.28;;;17.20;58.40;;;;;;5062073;28;20124;-33
2023/11/04 08:49:06;;;;;;;2.80;2.33;;;17.10;58.40;;;;;;5062300;28;20557;-33
2023/11/04 08:51:33;;;;;;;2.90;2.30;;;17.10;58.50;;;;;;5062197;28;20052;-33
2023/11/04 08:54:00;;;;;;;2.78;2.22;;;17.00;58.40;;;;;;5068315;28;20036;-33
2023/11/04 08:56:26;;;;;;;3.10;2.10;;;17.10;58.50;;;;;;5102625;28;20040;-33
2023/11/04 08:58:55;;;;;;;2.80;2.30;;;17.20;59.10;;;;;;5102038;28;20107;-33
2023/11/04 09:01:23;;;;;;;2.90;2.20;;;17.20;58.40;;;;;;5100737;28;20031;-34
2023/11/04 09:03:49;;;;;;;2.58;2.20;;;17.20;58.40;;;;;;5085533;28;20108;-34
2023/11/04 09:06:15;;;;;;;3.35;2.35;;;17.10;58.40;;;;;;5085748;28;20036;-34
2023/11/04 09:08:42;;;;;;;2.78;2.10;;;17.10;58.40;;;;;;5093616;28;20051;-36
2023/11/04 09:11:08;;;;;;;2.72;2.28;;;17.00;58.40;;;;;;5094476;28;20707;-33
2023/11/04 09:13:34;;;;;;;3.55;2.60;;;17.00;58.50;;;;;;5103052;28;20118;-34
2023/11/04 09:16:02;;;;;;;2.55;2.10;;;17.20;58.50;;;;;;5096595;28;20046;-33
2023/11/04 09:18:28;;;;;;;3.75;2.50;;;17.20;58.50;;;;;;5095950;28;20051;-33
2023/11/04 09:20:55;;;;;;;2.90;2.30;;;17.20;58.40;;;;;;5093139;28;20026;-34
2023/11/04 09:23:21;;;;;;;2.85;2.17;;;17.20;58.40;;;;;;5085688;28;20043;-33
2023/11/04 09:25:47;;;;;;;2.87;2.30;;;17.10;58.40;;;;;;5094057;28;20028;-34
2023/11/04 09:28:13;;;;;;;2.80;2.20;;;17.10;58.40;;;;;;5091729;28;20303;-34
2023/11/04 09:30:39;;;;;;;2.60;2.20;;;17.00;58.50;;;;;;5087863;28;20050;-34
2023/11/04 09:33:08;;;;;;;2.55;2.15;;;17.20;58.50;;;;;;5103917;28;20031;-34
2023/11/04 09:35:34;;;;;;;2.88;2.30;;;17.20;58.50;;;;;;5100872;28;20032;-34
2023/11/04 09:38:01;;;;;;;2.55;2.28;;;17.20;58.40;;;;;;5094663;28;20028;-33
2023/11/04 09:40:27;;;;;;;2.45;2.17;;;17.10;58.40;;;;;;5100655;28;20040;-33
2023/11/04 09:42:53;;;;;;;2.97;2.28;;;17.10;58.40;;;;;;5086108;28;20036;-34
2023/11/04 09:45:24;;;;;;;2.75;2.40;;;17.00;58.40;;;;;;5103654;28;20082;-34
2023/11/04 09:47:51;;;;;;;2.20;1.90;;;17.10;58.60;;;;;;5102047;28;20059;-34
2023/11/04 09:50:17;;;;;;;2.78;2.38;;;17.20;58.60;;;;;;5089691;28;20059;-34
2023/11/04 09:52:47;;;;;;;3.08;2.35;;;17.20;58.50;;;;;;5106824;28;20218;-34
2023/11/04 09:55:13;;;;;;;2.40;2.20;;;17.20;59.00;;;;;;5089427;28;20028;-34
2023/11/04 09:57:39;;;;;;;2.70;2.17;;;17.20;58.40;;;;;;5087554;28;20044;-33
2023/11/04 10:00:07;;;;;;;2.92;2.50;;;17.10;58.40;;;;;;5096460;28;20098;-33
2023/11/04 10:02:33;;;;;;;2.40;2.20;;;17.00;58.40;;;;;;5102696;28;20036;-34
2023/11/04 10:05:00;;;;;;;2.40;2.10;;;17.00;58.50;;;;;;5091914;28;20020;-33
2023/11/04 10:07:26;;;;;;;2.30;1.90;;;17.10;58.50;;;;;;5084968;28;20036;-33
2023/11/04 10:09:53;;;;;;;2.70;2.40;;;17.20;58.50;;;;;;5091328;28;20035;-33
2023/11/04 10:12:20;;;;;;;3.28;1.90;;;17.20;58.40;;;;;;5091745;28;20028;-33
2023/11/04 10:14:47;;;;;;;2.42;2.10;;;17.20;58.40;;;;;;5093919;28;20040;-33
2023/11/04 10:17:13;;;;;;;2.90;2.50;;;17.10;58.40;;;;;;5102687;28;20044;-33
2023/11/04 10:19:40;;;;;;;2.47;2.27;;;17.10;58.40;;;;;;5092877;28;20028;-34
2023/11/04 10:22:06;;;;;;;2.55;2.35;;;17.00;58.40;;;;;;5092794;28;20024;-34
2023/11/04 10:24:32;;;;;;;2.40;2.20;;;17.10;58.50;;;;;;5084495;28;20044;-34
2023/11/04 10:26:59;;;;;;;2.72;2.42;;;17.20;58.40;;;;;;5099032;28;20997;-34
2023/11/04 10:29:25;;;;;;;2.33;2.00;;;17.20;58.30;;;;;;5083786;28;20103;-34
2023/11/04 10:31:51;;;;;;;3.58;2.38;;;17.20;58.30;;;;;;5092427;28;20048;-34
2023/11/04 10:34:17;;;;;;;2.20;1.92;;;17.10;58.30;;;;;;5097089;28;20028;-34
2023/11/04 10:36:46;;;;;;;2.72;2.28;;;17.00;58.30;;;;;;5091586;28;20035;-34
2023/11/04 10:39:14;;;;;;;2.20;2.00;;;17.00;58.30;;;;;;5091067;28;20088;-34
2023/11/04 10:41:44;;;;;;;2.75;1.95;;;17.10;58.50;;;;;;5099326;28;20032;-34
2023/11/04 10:44:21;;;;;;;2.30;2.08;;;17.20;58.40;;;;;;5092821;28;20060;-33
2023/11/04 10:46:59;;;;;;;2.10;1.90;;;17.20;58.40;;;;;;5101126;28;20025;-33
2023/11/04 10:49:50;;;;;;;2.38;2.17;;;17.20;58.40;;;;;;5092892;28;20104;-33
2023/11/04 10:52:18;;;;;;;2.55;2.10;;;17.10;58.40;;;;;;5103356;28;20031;-33
2023/11/04 10:54:47;;;;;;;2.47;2.20;;;17.00;58.40;;;;;;5100699;28;20035;-33
2023/11/04 10:57:28;;;;;;;2.67;1.98;;;17.00;58.40;;;;;;5101407;28;20032;-33
2023/11/04 11:00:23;;;;;;;2.50;2.00;;;17.20;58.50;;;;;;5091979;28;20084;-33
2023/11/04 11:02:51;;;;;;;2.30;2.10;;;17.20;58.40;;;;;;5093121;28;20029;-33
2023/11/04 11:05:22;;;;;;;2.83;1.98;;;17.20;58.40;;;;;;5101879;28;20043;-34
2023/11/04 11:07:48;;;;;;;2.67;2.20;;;17.10;58.40;;;;;;5098540;28;20031;-32
2023/11/04 11:10:16;;;;;;;2.55;2.25;;;17.10;58.40;;;;;;5100372;28;20089;-33
2023/11/04 11:13:13;;;;;;;2.63;1.90;;;17.00;58.40;;;;;;5090692;28;20053;-34
2023/11/04 11:15:39;;;;;;;2.25;1.80;;;17.10;58.50;;;;;;5099853;28;20032;-34
2023/11/04 11:18:05;;;;;;;3.22;2.10;;;17.20;58.50;;;;;;5093968;28;20103;-34
2023/11/04 11:20:33;;;;;;;2.28;2.05;;;17.20;58.40;;;;;;5100082;28;20035;-33
2023/11/04 11:23:08;;;;;;;2.28;2.08;;;17.20;58.50;;;;;;5089945;28;20032;-33
2023/11/04 11:25:38;;;;;;;2.05;1.80;;;17.10;58.40;;;;;;5096471;28;20036;-33
2023/11/04 11:28:21;;;;;;;2.13;1.92;;;17.10;58.40;;;;;;5094968;28;20056;-34
2023/11/04 11:30:53;;;;;;;2.30;2.08;;;17.00;58.40;;;;;;5090873;28;20044;-33
2023/11/04 11:33:25;;;;;;;2.85;2.10;;;17.10;58.50;;;;;;5082038;28;20037;-33
2023/11/04 11:35:59;;;;;;;2.63;2.25;;;17.20;58.50;;;;;;5093797;28;20024;-33
2023/11/04 11:38:32;;;;;;;2.38;1.80;;;17.20;58.40;;;;;;5093620;28;20060;-34
2023/11/04 11:41:05;;;;;;;2.22;1.80;;;17.20;58.40;;;;;;5092748;28;20048;-34
2023/11/04 11:43:32;;;;;;;2.47;1.92;;;17.10;58.40;;;;;;5100025;28;20067;-33
2023/11/04 11:45:58;;;;;;;2.20;1.80;;;17.10;58.50;;;;;;5096201;28;20021;-33
2023/11/04 11:48:25;;;;;;;2.03;1.80;;;17.00;58.50;;;;;;5089370;28;20036;-33
2023/11/04 11:50:52;;;;;;;2.20;2.00;;;17.10;58.60;;;;;;5096889;28;20035;-34
2023/11/04 11:53:18;;;;;;;2.55;1.60;;;17.20;58.50;;;;;;5103432;28;20108;-34
2023/11/04 11:55:57;;;;;;;2.30;2.10;;;17.20;58.40;;;;;;5102124;28;20037;-34
2023/11/04 11:58:25;;;;;;;2.00;1.83;;;17.10;58.40;;;;;;5105172;28;20051;-34
2023/11/04 12:00:51;;;;;;;2.17;1.98;;;17.10;58.40;;;;;;5097577;28;20040;-34
2023/11/04 12:03:17;;;;;;;2.33;2.00;;;17.00;58.40;;;;;;5091050;28;20035;-33
2023/11/04 12:05:44;;;;;;;2.00;1.80;;;17.00;59.10;;;;;;5089186;28;20730;-33
2023/11/04 12:08:10;;;;;;;1.95;1.65;;;17.10;58.50;;;;;;5103904;28;20046;-34
2023/11/04 12:10:37;;;;;;;1.65;1.45;;;17.20;58.60;;;;;;5097156;28;20028;-33
2023/11/04 12:13:03;;;;;;;2.08;1.85;;;17.20;58.50;;;;;;5102957;28;20032;-33
2023/11/04 12:15:29;;;;;;;2.00;1.80;;;17.10;58.40;;;;;;5095317;28;20058;-33
2023/11/04 12:18:02;;;;;;;2.97;2.20;;;17.10;58.50;;;;;;5093460;28;20063;-34
2023/11/04 12:20:29;;;;;;;2.60;2.10;;;17.00;58.50;;;;;;5094206;28;20084;-33
2023/11/04 12:22:58;;;;;;;2.10;1.80;;;17.00;58.50;;;;;;5093541;28;20035;-33
2023/11/04 12:25:26;;;;;;;1.90;1.70;;;17.20;58.60;;;;;;5101068;28;20122;-34
2023/11/04 12:27:52;;;;;;;;;;;17.20;58.60;;;;;;5095123;28;20485;-34
2023/11/04 12:30:19;;;;;;;2.20;2.00;;;17.20;58.50;;;;;;5097772;28;19912;-34
2023/11/04 12:32:53;;;;;;;2.63;1.92;;;17.10;58.50;;;;;;5102823;28;20032;-34
2023/11/04 12:35:22;;;;;;;2.58;1.83;;;17.10;58.50;;;;;;5104198;28;20062;-34
2023/11/04 12:37:50;;;;;;;2.45;2.17;;;17.00;58.50;;;;;;5101157;28;20063;-34
2023/11/04 12:40:18;;;;;;;2.35;2.10;;;17.10;58.60;;;;;;5104107;28;20107;-34
2023/11/04 12:42:45;;;;;;;2.25;1.80;;;17.20;58.70;;;;;;5101407;28;20039;-35
2023/11/04 12:45:13;;;;;;;2.13;1.90;;;17.20;58.50;;;;;;5092914;28;20071;-34
2023/11/04 12:47:39;;;;;;;2.95;2.25;;;17.20;58.60;;;;;;5099982;28;20105;-35